sensor_id;sensor_type;location;lat;lon;timestamp;P1;durP1;ratioP1;P2;durP2;ratioP2
17235;SDS011;8734;59.272;17.780;2023-03-24T00:01:22;10.90;;;2.03;;
17235;SDS011;8734;59.272;17.780;2023-03-24T00:03:51;13.57;;;1.43;;
17235;SDS011;8734;59.272;17.780;2023-03-24T00:06:20;12.33;;;1.70;;
17235;SDS011;8734;59.272;17.780;2023-03-24T00:08:52;14.73;;;1.97;;
17235;SDS011;8734;59.272;17.780;2023-03-24T00:11:21;21.40;;;2.80;;
17235;SDS011;8734;59.272;17.780;2023-03-24T00:13:50;21.20;;;2.63;;
17235;SDS011;8734;59.272;17.780;2023-03-24T00:16:19;17.70;;;2.60;;
17235;SDS011;8734;59.272;17.780;2023-03-24T00:18:47;14.93;;;2.77;;
17235;SDS011;8734;59.272;17.780;2023-03-24T00:21:19;17.47;;;2.10;;
17235;SDS011;8734;59.272;17.780;2023-03-24T00:23:51;14.23;;;2.17;;
17235;SDS011;8734;59.272;17.780;2023-03-24T00:26:21;15.10;;;2.20;;
17235;SDS011;8734;59.272;17.780;2023-03-24T00:28:51;15.17;;;1.90;;
17235;SDS011;8734;59.272;17.780;2023-03-24T00:31:20;14.70;;;2.07;;
17235;SDS011;8734;59.272;17.780;2023-03-24T00:33:50;12.33;;;1.87;;
17235;SDS011;8734;59.272;17.780;2023-03-24T00:36:20;9.77;;;1.90;;
17235;SDS011;8734;59.272;17.780;2023-03-24T00:38:50;14.83;;;2.07;;
17235;SDS011;8734;59.272;17.780;2023-03-24T00:41:20;17.57;;;2.40;;
17235;SDS011;8734;59.272;17.780;2023-03-24T00:43:50;19.13;;;2.20;;
17235;SDS011;8734;59.272;17.780;2023-03-24T00:46:22;16.10;;;2.17;;
17235;SDS011;8734;59.272;17.780;2023-03-24T00:48:55;15.23;;;2.57;;
17235;SDS011;8734;59.272;17.780;2023-03-24T00:51:28;18.27;;;2.37;;
17235;SDS011;8734;59.272;17.780;2023-03-24T00:54:00;11.33;;;2.13;;
17235;SDS011;8734;59.272;17.780;2023-03-24T00:56:30;18.20;;;2.03;;
17235;SDS011;8734;59.272;17.780;2023-03-24T00:59:00;15.97;;;2.40;;
17235;SDS011;8734;59.272;17.780;2023-03-24T01:01:29;22.97;;;3.73;;
17235;SDS011;8734;59.272;17.780;2023-03-24T01:04:01;8.43;;;1.80;;
17235;SDS011;8734;59.272;17.780;2023-03-24T01:06:31;20.57;;;2.40;;
17235;SDS011;8734;59.272;17.780;2023-03-24T01:09:03;12.17;;;2.47;;
17235;SDS011;8734;59.272;17.780;2023-03-24T01:11:34;14.17;;;2.43;;
17235;SDS011;8734;59.272;17.780;2023-03-24T01:14:05;26.87;;;2.70;;
17235;SDS011;8734;59.272;17.780;2023-03-24T01:16:35;20.40;;;3.00;;
17235;SDS011;8734;59.272;17.780;2023-03-24T01:19:04;22.57;;;2.37;;
17235;SDS011;8734;59.272;17.780;2023-03-24T01:21:35;13.77;;;2.33;;
17235;SDS011;8734;59.272;17.780;2023-03-24T01:24:05;26.50;;;3.20;;
17235;SDS011;8734;59.272;17.780;2023-03-24T01:26:34;19.80;;;2.67;;
17235;SDS011;8734;59.272;17.780;2023-03-24T01:29:03;22.07;;;3.47;;
17235;SDS011;8734;59.272;17.780;2023-03-24T01:31:32;23.57;;;3.00;;
17235;SDS011;8734;59.272;17.780;2023-03-24T01:34:01;16.67;;;3.07;;
17235;SDS011;8734;59.272;17.780;2023-03-24T01:36:30;23.50;;;2.97;;
17235;SDS011;8734;59.272;17.780;2023-03-24T01:38:58;21.63;;;2.47;;
17235;SDS011;8734;59.272;17.780;2023-03-24T01:41:30;27.33;;;3.20;;
17235;SDS011;8734;59.272;17.780;2023-03-24T01:44:21;11.10;;;1.53;;
17235;SDS011;8734;59.272;17.780;2023-03-24T01:46:50;16.17;;;2.50;;
17235;SDS011;8734;59.272;17.780;2023-03-24T01:49:19;24.10;;;2.43;;
17235;SDS011;8734;59.272;17.780;2023-03-24T01:51:50;18.50;;;2.60;;
17235;SDS011;8734;59.272;17.780;2023-03-24T01:54:22;27.10;;;4.80;;
17235;SDS011;8734;59.272;17.780;2023-03-24T01:56:56;27.70;;;2.73;;
17235;SDS011;8734;59.272;17.780;2023-03-24T01:59:29;20.40;;;3.37;;
17235;SDS011;8734;59.272;17.780;2023-03-24T02:02:02;20.97;;;2.27;;
17235;SDS011;8734;59.272;17.780;2023-03-24T02:04:32;24.20;;;2.70;;
17235;SDS011;8734;59.272;17.780;2023-03-24T02:07:06;16.40;;;2.93;;
17235;SDS011;8734;59.272;17.780;2023-03-24T02:09:40;18.00;;;3.07;;
17235;SDS011;8734;59.272;17.780;2023-03-24T02:12:11;9.13;;;2.40;;
17235;SDS011;8734;59.272;17.780;2023-03-24T02:14:39;18.03;;;2.50;;
17235;SDS011;8734;59.272;17.780;2023-03-24T02:17:12;19.17;;;2.90;;
17235;SDS011;8734;59.272;17.780;2023-03-24T02:20:08;14.60;;;2.43;;
17235;SDS011;8734;59.272;17.780;2023-03-24T02:35:29;17.07;;;2.83;;
17235;SDS011;8734;59.272;17.780;2023-03-24T02:41:16;17.43;;;2.90;;
17235;SDS011;8734;59.272;17.780;2023-03-24T02:43:52;27.00;;;3.40;;
17235;SDS011;8734;59.272;17.780;2023-03-24T02:46:30;24.43;;;2.40;;
17235;SDS011;8734;59.272;17.780;2023-03-24T02:49:06;16.87;;;2.00;;
17235;SDS011;8734;59.272;17.780;2023-03-24T02:51:46;17.93;;;2.70;;
17235;SDS011;8734;59.272;17.780;2023-03-24T02:54:20;22.17;;;2.43;;
17235;SDS011;8734;59.272;17.780;2023-03-24T02:56:57;9.63;;;1.87;;
17235;SDS011;8734;59.272;17.780;2023-03-24T02:59:32;12.30;;;2.50;;
17235;SDS011;8734;59.272;17.780;2023-03-24T03:02:05;16.13;;;2.57;;
17235;SDS011;8734;59.272;17.780;2023-03-24T03:04:36;25.63;;;2.90;;
17235;SDS011;8734;59.272;17.780;2023-03-24T03:07:12;13.03;;;2.27;;
17235;SDS011;8734;59.272;17.780;2023-03-24T03:09:43;26.83;;;4.23;;
17235;SDS011;8734;59.272;17.780;2023-03-24T03:12:18;18.63;;;2.90;;
17235;SDS011;8734;59.272;17.780;2023-03-24T03:14:50;16.70;;;2.50;;
17235;SDS011;8734;59.272;17.780;2023-03-24T03:17:22;3.60;;;1.53;;
17235;SDS011;8734;59.272;17.780;2023-03-24T03:19:57;23.03;;;2.33;;
17235;SDS011;8734;59.272;17.780;2023-03-24T03:22:35;20.07;;;2.80;;
17235;SDS011;8734;59.272;17.780;2023-03-24T03:25:08;29.73;;;2.97;;
17235;SDS011;8734;59.272;17.780;2023-03-24T03:27:40;15.10;;;3.07;;
17235;SDS011;8734;59.272;17.780;2023-03-24T03:30:13;20.00;;;3.03;;
17235;SDS011;8734;59.272;17.780;2023-03-24T03:32:46;22.43;;;2.80;;
17235;SDS011;8734;59.272;17.780;2023-03-24T03:35:21;10.57;;;2.40;;
17235;SDS011;8734;59.272;17.780;2023-03-24T03:37:55;12.70;;;2.27;;
17235;SDS011;8734;59.272;17.780;2023-03-24T03:40:30;24.87;;;4.43;;
17235;SDS011;8734;59.272;17.780;2023-03-24T03:43:03;14.40;;;2.63;;
17235;SDS011;8734;59.272;17.780;2023-03-24T03:45:33;26.10;;;3.17;;
17235;SDS011;8734;59.272;17.780;2023-03-24T03:48:02;25.60;;;3.33;;
17235;SDS011;8734;59.272;17.780;2023-03-24T03:50:31;27.40;;;3.47;;
17235;SDS011;8734;59.272;17.780;2023-03-24T03:53:00;17.80;;;2.83;;
17235;SDS011;8734;59.272;17.780;2023-03-24T03:55:29;16.47;;;2.60;;
17235;SDS011;8734;59.272;17.780;2023-03-24T03:57:58;20.67;;;3.23;;
17235;SDS011;8734;59.272;17.780;2023-03-24T04:00:28;20.60;;;2.40;;
17235;SDS011;8734;59.272;17.780;2023-03-24T04:03:02;25.40;;;3.23;;
17235;SDS011;8734;59.272;17.780;2023-03-24T04:05:44;19.67;;;2.97;;
17235;SDS011;8734;59.272;17.780;2023-03-24T04:08:21;16.90;;;2.73;;
17235;SDS011;8734;59.272;17.780;2023-03-24T04:10:56;21.27;;;2.70;;
17235;SDS011;8734;59.272;17.780;2023-03-24T04:13:38;22.47;;;2.87;;
17235;SDS011;8734;59.272;17.780;2023-03-24T04:16:16;13.03;;;2.30;;
17235;SDS011;8734;59.272;17.780;2023-03-24T04:18:57;21.57;;;2.73;;
17235;SDS011;8734;59.272;17.780;2023-03-24T04:21:40;21.60;;;3.40;;
17235;SDS011;8734;59.272;17.780;2023-03-24T04:24:21;26.10;;;3.07;;
17235;SDS011;8734;59.272;17.780;2023-03-24T04:27:00;17.33;;;2.07;;
17235;SDS011;8734;59.272;17.780;2023-03-24T04:29:36;22.20;;;2.90;;
17235;SDS011;8734;59.272;17.780;2023-03-24T04:32:14;11.83;;;2.80;;
17235;SDS011;8734;59.272;17.780;2023-03-24T04:34:48;21.07;;;3.13;;
17235;SDS011;8734;59.272;17.780;2023-03-24T04:37:27;21.73;;;2.63;;
17235;SDS011;8734;59.272;17.780;2023-03-24T04:39:58;23.07;;;2.77;;
17235;SDS011;8734;59.272;17.780;2023-03-24T04:42:32;4.77;;;1.67;;
17235;SDS011;8734;59.272;17.780;2023-03-24T04:45:03;14.70;;;2.57;;
17235;SDS011;8734;59.272;17.780;2023-03-24T04:47:35;24.23;;;2.50;;
17235;SDS011;8734;59.272;17.780;2023-03-24T04:50:09;15.53;;;3.33;;
17235;SDS011;8734;59.272;17.780;2023-03-24T04:52:38;12.57;;;2.90;;
17235;SDS011;8734;59.272;17.780;2023-03-24T04:55:24;18.57;;;3.10;;
17235;SDS011;8734;59.272;17.780;2023-03-24T04:58:18;6.63;;;1.77;;
17235;SDS011;8734;59.272;17.780;2023-03-24T05:00:48;22.63;;;2.90;;
17235;SDS011;8734;59.272;17.780;2023-03-24T05:03:18;16.70;;;2.67;;
17235;SDS011;8734;59.272;17.780;2023-03-24T05:05:47;17.87;;;1.93;;
17235;SDS011;8734;59.272;17.780;2023-03-24T05:08:17;24.03;;;2.97;;
17235;SDS011;8734;59.272;17.780;2023-03-24T05:10:46;22.17;;;2.30;;
17235;SDS011;8734;59.272;17.780;2023-03-24T05:13:16;13.13;;;2.57;;
17235;SDS011;8734;59.272;17.780;2023-03-24T05:15:44;16.33;;;2.30;;
17235;SDS011;8734;59.272;17.780;2023-03-24T05:18:12;4.53;;;1.73;;
17235;SDS011;8734;59.272;17.780;2023-03-24T05:20:43;15.23;;;2.70;;
17235;SDS011;8734;59.272;17.780;2023-03-24T05:23:11;9.23;;;2.10;;
17235;SDS011;8734;59.272;17.780;2023-03-24T05:25:39;16.23;;;2.43;;
17235;SDS011;8734;59.272;17.780;2023-03-24T05:28:09;14.90;;;2.87;;
17235;SDS011;8734;59.272;17.780;2023-03-24T05:30:37;17.70;;;3.07;;
17235;SDS011;8734;59.272;17.780;2023-03-24T05:33:05;10.97;;;2.17;;
17235;SDS011;8734;59.272;17.780;2023-03-24T05:35:34;16.50;;;2.07;;
17235;SDS011;8734;59.272;17.780;2023-03-24T05:38:04;19.40;;;2.77;;
17235;SDS011;8734;59.272;17.780;2023-03-24T05:40:32;21.20;;;2.90;;
17235;SDS011;8734;59.272;17.780;2023-03-24T05:43:01;16.47;;;2.73;;
17235;SDS011;8734;59.272;17.780;2023-03-24T05:45:29;19.23;;;3.30;;
17235;SDS011;8734;59.272;17.780;2023-03-24T05:47:57;17.47;;;3.73;;
17235;SDS011;8734;59.272;17.780;2023-03-24T05:50:26;16.33;;;2.60;;
17235;SDS011;8734;59.272;17.780;2023-03-24T05:52:55;16.23;;;3.07;;
17235;SDS011;8734;59.272;17.780;2023-03-24T05:55:25;19.03;;;2.47;;
17235;SDS011;8734;59.272;17.780;2023-03-24T05:57:53;17.47;;;2.57;;
17235;SDS011;8734;59.272;17.780;2023-03-24T06:00:23;10.20;;;2.50;;
17235;SDS011;8734;59.272;17.780;2023-03-24T06:02:51;19.37;;;3.00;;
17235;SDS011;8734;59.272;17.780;2023-03-24T06:05:21;15.87;;;2.60;;
17235;SDS011;8734;59.272;17.780;2023-03-24T06:07:49;21.23;;;3.43;;
17235;SDS011;8734;59.272;17.780;2023-03-24T06:10:26;23.07;;;2.90;;
17235;SDS011;8734;59.272;17.780;2023-03-24T06:12:55;24.37;;;3.40;;
17235;SDS011;8734;59.272;17.780;2023-03-24T06:15:23;20.83;;;2.50;;
17235;SDS011;8734;59.272;17.780;2023-03-24T06:17:53;14.63;;;2.63;;
17235;SDS011;8734;59.272;17.780;2023-03-24T06:20:22;24.37;;;2.60;;
17235;SDS011;8734;59.272;17.780;2023-03-24T06:22:50;39.53;;;3.57;;
17235;SDS011;8734;59.272;17.780;2023-03-24T06:25:20;19.77;;;3.43;;
17235;SDS011;8734;59.272;17.780;2023-03-24T06:27:52;25.13;;;3.33;;
17235;SDS011;8734;59.272;17.780;2023-03-24T06:30:21;14.17;;;2.93;;
17235;SDS011;8734;59.272;17.780;2023-03-24T06:32:49;16.30;;;2.87;;
17235;SDS011;8734;59.272;17.780;2023-03-24T06:35:18;27.30;;;3.37;;
17235;SDS011;8734;59.272;17.780;2023-03-24T06:37:47;24.13;;;3.00;;
17235;SDS011;8734;59.272;17.780;2023-03-24T06:40:15;18.67;;;2.70;;
17235;SDS011;8734;59.272;17.780;2023-03-24T06:42:43;19.60;;;3.97;;
17235;SDS011;8734;59.272;17.780;2023-03-24T06:45:14;25.73;;;3.07;;
17235;SDS011;8734;59.272;17.780;2023-03-24T06:47:42;14.77;;;2.90;;
17235;SDS011;8734;59.272;17.780;2023-03-24T06:50:10;22.33;;;2.60;;
17235;SDS011;8734;59.272;17.780;2023-03-24T06:52:40;21.53;;;3.23;;
17235;SDS011;8734;59.272;17.780;2023-03-24T06:55:08;28.37;;;3.27;;
17235;SDS011;8734;59.272;17.780;2023-03-24T06:57:36;21.73;;;2.80;;
17235;SDS011;8734;59.272;17.780;2023-03-24T07:00:06;21.33;;;3.40;;
17235;SDS011;8734;59.272;17.780;2023-03-24T07:02:37;26.27;;;3.40;;
17235;SDS011;8734;59.272;17.780;2023-03-24T07:05:06;23.67;;;3.23;;
17235;SDS011;8734;59.272;17.780;2023-03-24T07:07:36;25.90;;;3.10;;
17235;SDS011;8734;59.272;17.780;2023-03-24T07:10:10;22.37;;;3.00;;
17235;SDS011;8734;59.272;17.780;2023-03-24T07:12:39;25.07;;;3.30;;
17235;SDS011;8734;59.272;17.780;2023-03-24T07:15:08;14.90;;;2.43;;
17235;SDS011;8734;59.272;17.780;2023-03-24T07:17:39;14.70;;;2.97;;
17235;SDS011;8734;59.272;17.780;2023-03-24T07:20:08;18.70;;;2.87;;
17235;SDS011;8734;59.272;17.780;2023-03-24T07:22:36;18.17;;;2.77;;
17235;SDS011;8734;59.272;17.780;2023-03-24T07:25:05;13.87;;;2.53;;
17235;SDS011;8734;59.272;17.780;2023-03-24T07:27:35;20.47;;;2.93;;
17235;SDS011;8734;59.272;17.780;2023-03-24T07:30:06;21.17;;;3.17;;
17235;SDS011;8734;59.272;17.780;2023-03-24T07:32:35;20.17;;;3.07;;
17235;SDS011;8734;59.272;17.780;2023-03-24T07:35:07;15.07;;;2.43;;
17235;SDS011;8734;59.272;17.780;2023-03-24T07:37:37;19.77;;;2.77;;
17235;SDS011;8734;59.272;17.780;2023-03-24T07:40:06;18.33;;;2.53;;
17235;SDS011;8734;59.272;17.780;2023-03-24T07:42:37;15.93;;;2.97;;
17235;SDS011;8734;59.272;17.780;2023-03-24T07:45:06;9.80;;;1.90;;
17235;SDS011;8734;59.272;17.780;2023-03-24T07:47:36;21.57;;;2.87;;
17235;SDS011;8734;59.272;17.780;2023-03-24T07:50:05;7.17;;;2.40;;
17235;SDS011;8734;59.272;17.780;2023-03-24T07:52:36;19.00;;;3.10;;
17235;SDS011;8734;59.272;17.780;2023-03-24T07:55:05;14.80;;;2.20;;
17235;SDS011;8734;59.272;17.780;2023-03-24T07:57:37;7.30;;;2.83;;
17235;SDS011;8734;59.272;17.780;2023-03-24T08:00:08;13.00;;;2.70;;
17235;SDS011;8734;59.272;17.780;2023-03-24T08:02:42;15.47;;;2.60;;
17235;SDS011;8734;59.272;17.780;2023-03-24T08:05:14;14.53;;;2.70;;
17235;SDS011;8734;59.272;17.780;2023-03-24T08:07:46;13.20;;;2.40;;
17235;SDS011;8734;59.272;17.780;2023-03-24T08:10:19;24.67;;;2.80;;
17235;SDS011;8734;59.272;17.780;2023-03-24T08:12:50;20.37;;;3.03;;
17235;SDS011;8734;59.272;17.780;2023-03-24T08:15:18;18.10;;;3.40;;
17235;SDS011;8734;59.272;17.780;2023-03-24T08:17:48;28.83;;;3.40;;
17235;SDS011;8734;59.272;17.780;2023-03-24T08:20:19;20.97;;;2.73;;
17235;SDS011;8734;59.272;17.780;2023-03-24T08:22:49;20.80;;;3.07;;
17235;SDS011;8734;59.272;17.780;2023-03-24T08:25:21;26.97;;;3.70;;
17235;SDS011;8734;59.272;17.780;2023-03-24T08:27:51;16.70;;;3.40;;
17235;SDS011;8734;59.272;17.780;2023-03-24T08:30:20;18.10;;;2.63;;
17235;SDS011;8734;59.272;17.780;2023-03-24T08:32:51;18.10;;;2.80;;
17235;SDS011;8734;59.272;17.780;2023-03-24T08:35:23;14.50;;;2.40;;
17235;SDS011;8734;59.272;17.780;2023-03-24T08:37:53;20.17;;;3.23;;
17235;SDS011;8734;59.272;17.780;2023-03-24T08:40:22;12.27;;;2.73;;
17235;SDS011;8734;59.272;17.780;2023-03-24T08:42:53;20.10;;;2.97;;
17235;SDS011;8734;59.272;17.780;2023-03-24T08:45:23;16.20;;;2.43;;
17235;SDS011;8734;59.272;17.780;2023-03-24T08:47:54;27.30;;;3.33;;
17235;SDS011;8734;59.272;17.780;2023-03-24T08:50:26;17.07;;;3.53;;
17235;SDS011;8734;59.272;17.780;2023-03-24T08:52:57;21.13;;;3.37;;
17235;SDS011;8734;59.272;17.780;2023-03-24T08:55:26;13.27;;;2.83;;
17235;SDS011;8734;59.272;17.780;2023-03-24T08:57:54;22.77;;;3.60;;
17235;SDS011;8734;59.272;17.780;2023-03-24T09:00:23;16.03;;;3.00;;
17235;SDS011;8734;59.272;17.780;2023-03-24T09:02:52;27.30;;;3.37;;
17235;SDS011;8734;59.272;17.780;2023-03-24T09:05:22;18.07;;;3.13;;
17235;SDS011;8734;59.272;17.780;2023-03-24T09:08:10;42.93;;;5.03;;
17235;SDS011;8734;59.272;17.780;2023-03-24T09:10:39;20.30;;;3.13;;
17235;SDS011;8734;59.272;17.780;2023-03-24T09:13:08;20.90;;;4.10;;
17235;SDS011;8734;59.272;17.780;2023-03-24T09:15:36;21.40;;;3.13;;
17235;SDS011;8734;59.272;17.780;2023-03-24T09:18:05;39.50;;;3.30;;
17235;SDS011;8734;59.272;17.780;2023-03-24T09:20:35;16.97;;;2.87;;
17235;SDS011;8734;59.272;17.780;2023-03-24T09:23:03;19.90;;;3.60;;
17235;SDS011;8734;59.272;17.780;2023-03-24T09:25:31;17.43;;;3.20;;
17235;SDS011;8734;59.272;17.780;2023-03-24T09:28:00;28.43;;;3.17;;
17235;SDS011;8734;59.272;17.780;2023-03-24T09:30:28;29.93;;;3.43;;
17235;SDS011;8734;59.272;17.780;2023-03-24T09:33:00;22.93;;;3.57;;
17235;SDS011;8734;59.272;17.780;2023-03-24T09:35:29;17.60;;;2.90;;
17235;SDS011;8734;59.272;17.780;2023-03-24T09:37:58;14.83;;;3.33;;
17235;SDS011;8734;59.272;17.780;2023-03-24T09:40:27;25.60;;;3.33;;
17235;SDS011;8734;59.272;17.780;2023-03-24T09:43:00;19.53;;;2.73;;
17235;SDS011;8734;59.272;17.780;2023-03-24T09:45:32;21.37;;;3.53;;
17235;SDS011;8734;59.272;17.780;2023-03-24T09:48:04;15.80;;;3.07;;
17235;SDS011;8734;59.272;17.780;2023-03-24T09:50:39;19.20;;;2.70;;
17235;SDS011;8734;59.272;17.780;2023-03-24T09:53:19;22.20;;;2.73;;
17235;SDS011;8734;59.272;17.780;2023-03-24T09:55:54;13.43;;;2.97;;
17235;SDS011;8734;59.272;17.780;2023-03-24T09:58:24;16.10;;;2.53;;
17235;SDS011;8734;59.272;17.780;2023-03-24T10:00:59;18.17;;;3.40;;
17235;SDS011;8734;59.272;17.780;2023-03-24T10:03:27;24.53;;;3.20;;
17235;SDS011;8734;59.272;17.780;2023-03-24T10:05:57;16.67;;;2.70;;
17235;SDS011;8734;59.272;17.780;2023-03-24T10:08:35;23.87;;;5.27;;
17235;SDS011;8734;59.272;17.780;2023-03-24T10:11:05;21.17;;;3.10;;
17235;SDS011;8734;59.272;17.780;2023-03-24T10:13:41;27.27;;;3.70;;
17235;SDS011;8734;59.272;17.780;2023-03-24T10:16:18;21.60;;;2.53;;
17235;SDS011;8734;59.272;17.780;2023-03-24T10:18:55;14.93;;;2.73;;
17235;SDS011;8734;59.272;17.780;2023-03-24T10:21:28;16.90;;;2.83;;
17235;SDS011;8734;59.272;17.780;2023-03-24T10:24:02;19.57;;;3.73;;
17235;SDS011;8734;59.272;17.780;2023-03-24T10:26:38;17.40;;;2.47;;
17235;SDS011;8734;59.272;17.780;2023-03-24T10:29:15;15.33;;;2.97;;
17235;SDS011;8734;59.272;17.780;2023-03-24T10:31:50;20.20;;;2.73;;
17235;SDS011;8734;59.272;17.780;2023-03-24T10:34:24;15.10;;;3.23;;
17235;SDS011;8734;59.272;17.780;2023-03-24T10:36:56;14.47;;;2.63;;
17235;SDS011;8734;59.272;17.780;2023-03-24T10:39:28;11.43;;;2.00;;
17235;SDS011;8734;59.272;17.780;2023-03-24T10:42:11;15.40;;;2.80;;
17235;SDS011;8734;59.272;17.780;2023-03-24T10:44:42;23.60;;;3.03;;
17235;SDS011;8734;59.272;17.780;2023-03-24T10:47:12;41.73;;;3.27;;
17235;SDS011;8734;59.272;17.780;2023-03-24T10:49:50;18.87;;;2.80;;
17235;SDS011;8734;59.272;17.780;2023-03-24T10:52:20;17.73;;;2.90;;
17235;SDS011;8734;59.272;17.780;2023-03-24T10:54:54;16.90;;;3.00;;
17235;SDS011;8734;59.272;17.780;2023-03-24T10:57:25;15.27;;;3.20;;
17235;SDS011;8734;59.272;17.780;2023-03-24T10:59:56;13.40;;;2.67;;
17235;SDS011;8734;59.272;17.780;2023-03-24T11:02:28;24.50;;;3.10;;
17235;SDS011;8734;59.272;17.780;2023-03-24T11:04:58;27.40;;;3.47;;
17235;SDS011;8734;59.272;17.780;2023-03-24T11:07:29;10.33;;;2.80;;
17235;SDS011;8734;59.272;17.780;2023-03-24T11:10:03;22.10;;;3.00;;
17235;SDS011;8734;59.272;17.780;2023-03-24T11:12:33;16.87;;;2.47;;
17235;SDS011;8734;59.272;17.780;2023-03-24T11:15:12;59.33;;;4.43;;
17235;SDS011;8734;59.272;17.780;2023-03-24T11:17:51;62.80;;;5.03;;
17235;SDS011;8734;59.272;17.780;2023-03-24T11:20:24;18.10;;;2.53;;
17235;SDS011;8734;59.272;17.780;2023-03-24T11:22:58;16.50;;;2.93;;
17235;SDS011;8734;59.272;17.780;2023-03-24T11:25:30;21.53;;;2.83;;
17235;SDS011;8734;59.272;17.780;2023-03-24T11:28:01;18.77;;;3.43;;
17235;SDS011;8734;59.272;17.780;2023-03-24T11:30:33;19.07;;;3.10;;
17235;SDS011;8734;59.272;17.780;2023-03-24T11:33:12;24.87;;;3.40;;
17235;SDS011;8734;59.272;17.780;2023-03-24T11:36:02;16.80;;;3.17;;
17235;SDS011;8734;59.272;17.780;2023-03-24T11:38:36;23.07;;;3.33;;
17235;SDS011;8734;59.272;17.780;2023-03-24T11:41:09;19.40;;;2.83;;
17235;SDS011;8734;59.272;17.780;2023-03-24T11:43:48;19.93;;;3.13;;
17235;SDS011;8734;59.272;17.780;2023-03-24T11:46:17;16.77;;;3.73;;
17235;SDS011;8734;59.272;17.780;2023-03-24T11:48:49;19.00;;;3.63;;
17235;SDS011;8734;59.272;17.780;2023-03-24T11:51:22;22.73;;;3.07;;
17235;SDS011;8734;59.272;17.780;2023-03-24T11:53:55;18.93;;;3.47;;
17235;SDS011;8734;59.272;17.780;2023-03-24T11:56:29;22.17;;;3.57;;
17235;SDS011;8734;59.272;17.780;2023-03-24T11:59:03;38.53;;;5.53;;
17235;SDS011;8734;59.272;17.780;2023-03-24T12:01:41;18.80;;;3.53;;
17235;SDS011;8734;59.272;17.780;2023-03-24T12:04:23;19.30;;;3.20;;
17235;SDS011;8734;59.272;17.780;2023-03-24T12:07:07;27.13;;;4.13;;
17235;SDS011;8734;59.272;17.780;2023-03-24T12:09:59;24.97;;;3.70;;
17235;SDS011;8734;59.272;17.780;2023-03-24T12:12:36;16.30;;;3.10;;
17235;SDS011;8734;59.272;17.780;2023-03-24T12:18:04;17.03;;;2.90;;
17235;SDS011;8734;59.272;17.780;2023-03-24T12:20:43;23.23;;;3.40;;
17235;SDS011;8734;59.272;17.780;2023-03-24T12:23:22;31.30;;;5.03;;
17235;SDS011;8734;59.272;17.780;2023-03-24T12:26:09;21.53;;;4.37;;
17235;SDS011;8734;59.272;17.780;2023-03-24T12:28:52;24.97;;;3.53;;
17235;SDS011;8734;59.272;17.780;2023-03-24T12:31:32;19.67;;;3.53;;
17235;SDS011;8734;59.272;17.780;2023-03-24T12:34:18;20.77;;;3.43;;
17235;SDS011;8734;59.272;17.780;2023-03-24T12:37:10;20.93;;;3.63;;
17235;SDS011;8734;59.272;17.780;2023-03-24T12:39:46;20.33;;;3.37;;
17235;SDS011;8734;59.272;17.780;2023-03-24T12:42:20;15.43;;;3.13;;
17235;SDS011;8734;59.272;17.780;2023-03-24T12:45:04;16.60;;;2.90;;
17235;SDS011;8734;59.272;17.780;2023-03-24T12:47:43;24.30;;;3.70;;
17235;SDS011;8734;59.272;17.780;2023-03-24T12:50:24;19.67;;;3.07;;
17235;SDS011;8734;59.272;17.780;2023-03-24T12:53:13;18.53;;;3.27;;
17235;SDS011;8734;59.272;17.780;2023-03-24T12:56:03;9.27;;;2.93;;
17235;SDS011;8734;59.272;17.780;2023-03-24T12:58:38;15.27;;;2.47;;
17235;SDS011;8734;59.272;17.780;2023-03-24T13:01:15;16.87;;;2.97;;
17235;SDS011;8734;59.272;17.780;2023-03-24T13:03:50;19.87;;;2.80;;
17235;SDS011;8734;59.272;17.780;2023-03-24T13:06:24;8.70;;;2.80;;
17235;SDS011;8734;59.272;17.780;2023-03-24T13:09:11;12.17;;;2.70;;
17235;SDS011;8734;59.272;17.780;2023-03-24T13:11:48;12.10;;;2.50;;
17235;SDS011;8734;59.272;17.780;2023-03-24T13:14:24;8.80;;;1.93;;
17235;SDS011;8734;59.272;17.780;2023-03-24T13:17:02;6.83;;;2.00;;
17235;SDS011;8734;59.272;17.780;2023-03-24T13:19:34;10.03;;;2.40;;
17235;SDS011;8734;59.272;17.780;2023-03-24T13:22:04;9.40;;;1.87;;
17235;SDS011;8734;59.272;17.780;2023-03-24T13:24:37;3.73;;;1.70;;
17235;SDS011;8734;59.272;17.780;2023-03-24T13:27:07;5.80;;;1.70;;
17235;SDS011;8734;59.272;17.780;2023-03-24T13:29:52;6.80;;;1.33;;
17235;SDS011;8734;59.272;17.780;2023-03-24T13:32:46;4.07;;;1.50;;
17235;SDS011;8734;59.272;17.780;2023-03-24T13:35:20;11.20;;;1.90;;
17235;SDS011;8734;59.272;17.780;2023-03-24T13:37:59;3.23;;;1.47;;
17235;SDS011;8734;59.272;17.780;2023-03-24T13:40:36;6.93;;;1.60;;
17235;SDS011;8734;59.272;17.780;2023-03-24T13:43:09;4.57;;;1.50;;
17235;SDS011;8734;59.272;17.780;2023-03-24T13:45:39;2.17;;;1.10;;
17235;SDS011;8734;59.272;17.780;2023-03-24T13:48:18;3.80;;;1.30;;
17235;SDS011;8734;59.272;17.780;2023-03-24T13:50:56;7.00;;;1.43;;
17235;SDS011;8734;59.272;17.780;2023-03-24T13:53:32;3.10;;;1.27;;
17235;SDS011;8734;59.272;17.780;2023-03-24T13:56:03;3.33;;;1.10;;
17235;SDS011;8734;59.272;17.780;2023-03-24T13:58:48;4.47;;;1.00;;
17235;SDS011;8734;59.272;17.780;2023-03-24T14:01:32;1.53;;;1.20;;
17235;SDS011;8734;59.272;17.780;2023-03-24T14:04:25;2.20;;;1.30;;
17235;SDS011;8734;59.272;17.780;2023-03-24T14:06:54;10.53;;;1.70;;
17235;SDS011;8734;59.272;17.780;2023-03-24T14:09:25;3.67;;;1.40;;
17235;SDS011;8734;59.272;17.780;2023-03-24T14:12:08;11.33;;;1.73;;
17235;SDS011;8734;59.272;17.780;2023-03-24T14:17:46;6.83;;;1.60;;
17235;SDS011;8734;59.272;17.780;2023-03-24T14:20:31;4.80;;;1.53;;
17235;SDS011;8734;59.272;17.780;2023-03-24T14:23:01;2.17;;;1.60;;
17235;SDS011;8734;59.272;17.780;2023-03-24T14:25:30;2.63;;;1.70;;
17235;SDS011;8734;59.272;17.780;2023-03-24T14:28:06;3.13;;;1.83;;
17235;SDS011;8734;59.272;17.780;2023-03-24T14:31:01;2.60;;;1.30;;
17235;SDS011;8734;59.272;17.780;2023-03-24T14:33:38;1.67;;;1.10;;
17235;SDS011;8734;59.272;17.780;2023-03-24T14:36:15;4.30;;;1.60;;
17235;SDS011;8734;59.272;17.780;2023-03-24T14:38:48;3.30;;;1.50;;
17235;SDS011;8734;59.272;17.780;2023-03-24T14:41:26;3.37;;;1.63;;
17235;SDS011;8734;59.272;17.780;2023-03-24T14:43:57;1.77;;;1.33;;
17235;SDS011;8734;59.272;17.780;2023-03-24T14:49:25;3.50;;;1.10;;
17235;SDS011;8734;59.272;17.780;2023-03-24T14:52:01;1.30;;;1.00;;
17235;SDS011;8734;59.272;17.780;2023-03-24T14:54:37;1.90;;;1.10;;
17235;SDS011;8734;59.272;17.780;2023-03-24T14:57:11;1.70;;;1.27;;
17235;SDS011;8734;59.272;17.780;2023-03-24T14:59:46;1.77;;;0.70;;
17235;SDS011;8734;59.272;17.780;2023-03-24T15:02:23;1.00;;;0.70;;
17235;SDS011;8734;59.272;17.780;2023-03-24T15:05:19;1.07;;;0.87;;
17235;SDS011;8734;59.272;17.780;2023-03-24T15:10:44;2.77;;;1.07;;
17235;SDS011;8734;59.272;17.780;2023-03-24T15:13:22;1.70;;;1.40;;
17235;SDS011;8734;59.272;17.780;2023-03-24T15:15:56;1.67;;;1.10;;
17235;SDS011;8734;59.272;17.780;2023-03-24T15:18:26;1.63;;;1.20;;
17235;SDS011;8734;59.272;17.780;2023-03-24T15:20:54;2.50;;;1.13;;
17235;SDS011;8734;59.272;17.780;2023-03-24T15:23:25;1.30;;;1.20;;
17235;SDS011;8734;59.272;17.780;2023-03-24T15:25:54;1.40;;;1.03;;
17235;SDS011;8734;59.272;17.780;2023-03-24T15:28:23;1.37;;;1.17;;
17235;SDS011;8734;59.272;17.780;2023-03-24T15:30:54;2.53;;;1.40;;
17235;SDS011;8734;59.272;17.780;2023-03-24T15:33:25;2.20;;;1.30;;
17235;SDS011;8734;59.272;17.780;2023-03-24T15:35:56;2.37;;;1.57;;
17235;SDS011;8734;59.272;17.780;2023-03-24T15:38:28;2.97;;;1.33;;